QLK23 YBCS-YBBN
Flight info
| Callsign | QLK23 |
|---|---|
| Flight time | 1h 49m |
| Altitude | 37000 |
| Route | DCT CS Y177 BN DCT |
| Aircraft | A320/M-SDE3FGHIRWY/LB1 |
Departure
| Time | 2026-04-27 08:56 |
|---|---|
| Airport | Cairns International Airport (YBCS) |
Arrival
| Time | 2026-04-27 10:45 |
|---|---|
| Airport | Brisbane International Airport (YBBN) |
| Time | Latitude | Longitude | Altitude | Speed | Heading |
|---|---|---|---|---|---|
| 2026-04-27 08:27 | -16.87413 | 145.75124 | 12 ft | 0 kts | 71° |
| 2026-04-27 08:38 | -16.87418 | 145.75108 | 15 ft | 3 kts | 71° |
| 2026-04-27 08:38 | -16.87423 | 145.75091 | 16 ft | 3 kts | 71° |
| 2026-04-27 08:38 | -16.87428 | 145.75073 | 11 ft | 2 kts | 59° |
| 2026-04-27 08:38 | -16.87440 | 145.75060 | -7 ft | 3 kts | 24° |
| 2026-04-27 08:39 | -16.87456 | 145.75055 | 3 ft | 2 kts | 331° |
| 2026-04-27 08:39 | -16.87460 | 145.75057 | 2 ft | 0 kts | 332° |
| 2026-04-27 08:41 | -16.87458 | 145.75056 | 3 ft | 1 kts | 332° |
| 2026-04-27 08:42 | -16.87439 | 145.75046 | 8 ft | 7 kts | 334° |
| 2026-04-27 08:42 | -16.87386 | 145.75023 | -4 ft | 9 kts | 338° |
| 2026-04-27 08:42 | -16.87329 | 145.74981 | -3 ft | 12 kts | 308° |
| 2026-04-27 08:42 | -16.87295 | 145.74898 | -7 ft | 11 kts | 295° |
| 2026-04-27 08:43 | -16.87230 | 145.74846 | -7 ft | 11 kts | 336° |
| 2026-04-27 08:43 | -16.87155 | 145.74813 | -7 ft | 12 kts | 337° |
| 2026-04-27 08:43 | -16.87088 | 145.74783 | -7 ft | 5 kts | 336° |
| 2026-04-27 08:43 | -16.87056 | 145.74757 | -8 ft | 4 kts | 308° |
| 2026-04-27 08:44 | -16.87054 | 145.74754 | -7 ft | 0 kts | 304° |
| 2026-04-27 08:46 | -16.87054 | 145.74753 | -7 ft | 2 kts | 304° |
| 2026-04-27 08:46 | -16.87047 | 145.74727 | -10 ft | 6 kts | 274° |
| 2026-04-27 08:46 | -16.87056 | 145.74692 | -8 ft | 0 kts | 245° |
| 2026-04-27 08:52 | -16.87056 | 145.74691 | -8 ft | 1 kts | 245° |
| 2026-04-27 08:52 | -16.87070 | 145.74660 | -10 ft | 7 kts | 243° |
| 2026-04-27 08:52 | -16.87113 | 145.74622 | -10 ft | 9 kts | 203° |
| 2026-04-27 08:52 | -16.87181 | 145.74628 | -8 ft | 10 kts | 161° |
| 2026-04-27 08:53 | -16.87238 | 145.74653 | -7 ft | 5 kts | 156° |
| 2026-04-27 08:55 | -16.87315 | 145.74688 | -5 ft | 41 kts | 156° |
| 2026-04-27 08:55 | -16.87787 | 145.74900 | 14 ft | 104 kts | 157° |
| 2026-04-27 08:55 | -16.88604 | 145.75268 | 21 ft | 150 kts | 157° |
| 2026-04-27 08:56 | -16.89482 | 145.75857 | 507 ft | 149 kts | 127° |
| 2026-04-27 08:56 | -16.89731 | 145.76911 | 1067 ft | 160 kts | 86° |
| 2026-04-27 08:56 | -16.89371 | 145.78082 | 1509 ft | 179 kts | 68° |
| 2026-04-27 08:56 | -16.88660 | 145.79220 | 1927 ft | 196 kts | 57° |
| 2026-04-27 08:57 | -16.86515 | 145.81247 | 2945 ft | 214 kts | 44° |
| 2026-04-27 08:57 | -16.85335 | 145.82185 | 3592 ft | 210 kts | 51° |
| 2026-04-27 08:57 | -16.84582 | 145.83421 | 4169 ft | 199 kts | 83° |
| 2026-04-27 08:58 | -16.84765 | 145.84829 | 4447 ft | 204 kts | 126° |
| 2026-04-27 08:58 | -16.85871 | 145.85847 | 4725 ft | 226 kts | 148° |
| 2026-04-27 08:58 | -16.87305 | 145.86672 | 5229 ft | 243 kts | 152° |
| 2026-04-27 08:58 | -16.88845 | 145.87490 | 5945 ft | 252 kts | 152° |
| 2026-04-27 08:59 | -16.90427 | 145.88349 | 6705 ft | 259 kts | 151° |
| 2026-04-27 08:59 | -16.92025 | 145.89256 | 7461 ft | 265 kts | 150° |
| 2026-04-27 08:59 | -16.93628 | 145.90202 | 8190 ft | 271 kts | 149° |
| 2026-04-27 08:59 | -16.95269 | 145.91198 | 8989 ft | 275 kts | 149° |
| 2026-04-27 09:00 | -16.96918 | 145.92221 | 9813 ft | 277 kts | 148° |
| 2026-04-27 09:00 | -16.98604 | 145.93280 | 10302 ft | 291 kts | 149° |
| 2026-04-27 09:00 | -17.00410 | 145.94416 | 10488 ft | 315 kts | 149° |
| 2026-04-27 09:00 | -17.02332 | 145.95624 | 10873 ft | 327 kts | 150° |
| 2026-04-27 09:01 | -17.04309 | 145.96866 | 11381 ft | 336 kts | 150° |
| 2026-04-27 09:01 | -17.06325 | 145.98136 | 11943 ft | 342 kts | 151° |
| 2026-04-27 09:01 | -17.08385 | 145.99434 | 12520 ft | 347 kts | 152° |
| 2026-04-27 09:01 | -17.10475 | 146.00750 | 13080 ft | 353 kts | 152° |
| 2026-04-27 09:02 | -17.12597 | 146.02086 | 13641 ft | 358 kts | 153° |
| 2026-04-27 09:02 | -17.14747 | 146.03440 | 14143 ft | 363 kts | 153° |
| 2026-04-27 09:02 | -17.16897 | 146.04791 | 14656 ft | 367 kts | 153° |
| 2026-04-27 09:02 | -17.19092 | 146.06171 | 15175 ft | 370 kts | 153° |
| 2026-04-27 09:03 | -17.21310 | 146.07569 | 15705 ft | 373 kts | 153° |
| 2026-04-27 09:03 | -17.23541 | 146.08977 | 16253 ft | 376 kts | 152° |
| 2026-04-27 09:03 | -17.25787 | 146.10396 | 16781 ft | 379 kts | 152° |
| 2026-04-27 09:03 | -17.28051 | 146.11828 | 17309 ft | 382 kts | 152° |
| 2026-04-27 09:04 | -17.30340 | 146.13271 | 17827 ft | 385 kts | 152° |
| 2026-04-27 09:04 | -17.32643 | 146.14722 | 18344 ft | 388 kts | 152° |
| 2026-04-27 09:04 | -17.34965 | 146.16187 | 18797 ft | 391 kts | 152° |
| 2026-04-27 09:04 | -17.37307 | 146.17665 | 19269 ft | 394 kts | 152° |
| 2026-04-27 09:05 | -17.39662 | 146.19151 | 19744 ft | 397 kts | 152° |
| 2026-04-27 09:05 | -17.42038 | 146.20652 | 20221 ft | 400 kts | 152° |
| 2026-04-27 09:05 | -17.44428 | 146.22165 | 20699 ft | 403 kts | 152° |
| 2026-04-27 09:05 | -17.46834 | 146.23688 | 21172 ft | 406 kts | 152° |
| 2026-04-27 09:06 | -17.49264 | 146.25227 | 21660 ft | 409 kts | 152° |
| 2026-04-27 09:06 | -17.51712 | 146.26776 | 22131 ft | 412 kts | 152° |
| 2026-04-27 09:06 | -17.54175 | 146.28336 | 22613 ft | 415 kts | 152° |
| 2026-04-27 09:06 | -17.56656 | 146.29909 | 23088 ft | 418 kts | 152° |
| 2026-04-27 09:07 | -17.59158 | 146.31496 | 23555 ft | 421 kts | 152° |
| 2026-04-27 09:07 | -17.61674 | 146.33093 | 23929 ft | 425 kts | 152° |
| 2026-04-27 09:07 | -17.64175 | 146.34678 | 24311 ft | 427 kts | 152° |
| 2026-04-27 09:07 | -17.66723 | 146.36290 | 24702 ft | 429 kts | 152° |
| 2026-04-27 09:08 | -17.69295 | 146.37916 | 25083 ft | 431 kts | 152° |
| 2026-04-27 09:08 | -17.71869 | 146.39548 | 25460 ft | 434 kts | 152° |
| 2026-04-27 09:08 | -17.74460 | 146.41194 | 25845 ft | 436 kts | 152° |
| 2026-04-27 09:08 | -17.77061 | 146.42845 | 26227 ft | 438 kts | 152° |
| 2026-04-27 09:09 | -17.79674 | 146.44505 | 26597 ft | 440 kts | 152° |
| 2026-04-27 09:09 | -17.82300 | 146.46174 | 26959 ft | 443 kts | 152° |
| 2026-04-27 09:09 | -17.84947 | 146.47853 | 27321 ft | 445 kts | 152° |
| 2026-04-27 09:09 | -17.87601 | 146.49537 | 27692 ft | 447 kts | 152° |
| 2026-04-27 09:10 | -17.90269 | 146.51232 | 28047 ft | 450 kts | 152° |
| 2026-04-27 09:10 | -17.92953 | 146.52942 | 28397 ft | 452 kts | 152° |
| 2026-04-27 09:10 | -17.95647 | 146.54659 | 28744 ft | 454 kts | 152° |
| 2026-04-27 09:10 | -17.98354 | 146.56385 | 29091 ft | 457 kts | 152° |
| 2026-04-27 09:11 | -18.01075 | 146.58120 | 29437 ft | 459 kts | 152° |
| 2026-04-27 09:11 | -18.03812 | 146.59862 | 29772 ft | 461 kts | 152° |
| 2026-04-27 09:11 | -18.06564 | 146.61611 | 30095 ft | 464 kts | 152° |
| 2026-04-27 09:11 | -18.09329 | 146.63372 | 30376 ft | 466 kts | 152° |
| 2026-04-27 09:12 | -18.12117 | 146.65150 | 30640 ft | 469 kts | 152° |
| 2026-04-27 09:12 | -18.14908 | 146.66932 | 30938 ft | 470 kts | 152° |
| 2026-04-27 09:12 | -18.17703 | 146.68718 | 31318 ft | 469 kts | 152° |
| 2026-04-27 09:12 | -18.20460 | 146.70478 | 31678 ft | 469 kts | 152° |
| 2026-04-27 09:13 | -18.23251 | 146.72260 | 32037 ft | 470 kts | 152° |
| 2026-04-27 09:13 | -18.26042 | 146.74044 | 32400 ft | 470 kts | 152° |
| 2026-04-27 09:13 | -18.28839 | 146.75833 | 32763 ft | 470 kts | 152° |
| 2026-04-27 09:13 | -18.31635 | 146.77625 | 33128 ft | 470 kts | 152° |
| 2026-04-27 09:14 | -18.34428 | 146.79417 | 33494 ft | 470 kts | 152° |
| 2026-04-27 09:14 | -18.37237 | 146.81193 | 33858 ft | 470 kts | 153° |
| 2026-04-27 09:14 | -18.40073 | 146.82906 | 34190 ft | 470 kts | 154° |
| 2026-04-27 09:14 | -18.42941 | 146.84573 | 34455 ft | 471 kts | 155° |
| 2026-04-27 09:15 | -18.45832 | 146.86222 | 34678 ft | 473 kts | 155° |
| 2026-04-27 09:15 | -18.48736 | 146.87877 | 34906 ft | 475 kts | 155° |
| 2026-04-27 09:15 | -18.51600 | 146.89524 | 35148 ft | 476 kts | 155° |
| 2026-04-27 09:15 | -18.54499 | 146.91210 | 35472 ft | 475 kts | 155° |
| 2026-04-27 09:16 | -18.57391 | 146.92908 | 35775 ft | 475 kts | 155° |
| 2026-04-27 09:16 | -18.60276 | 146.94613 | 36025 ft | 476 kts | 155° |
| 2026-04-27 09:16 | -18.63166 | 146.96323 | 36263 ft | 477 kts | 155° |
| 2026-04-27 09:16 | -18.66065 | 146.98035 | 36493 ft | 477 kts | 155° |
| 2026-04-27 09:17 | -18.68965 | 146.99745 | 36722 ft | 478 kts | 155° |
| 2026-04-27 09:17 | -18.71872 | 147.01454 | 36934 ft | 479 kts | 156° |
| 2026-04-27 09:17 | -18.74790 | 147.03167 | 37011 ft | 482 kts | 156° |
| 2026-04-27 09:18 | -18.80666 | 147.06627 | 37014 ft | 484 kts | 156° |
| 2026-04-27 09:18 | -18.86546 | 147.10093 | 37027 ft | 482 kts | 155° |
| 2026-04-27 09:19 | -18.92364 | 147.13529 | 37017 ft | 477 kts | 155° |
| 2026-04-27 09:19 | -18.98113 | 147.16925 | 37019 ft | 476 kts | 155° |
| 2026-04-27 09:20 | -19.02924 | 147.19771 | 37022 ft | 476 kts | 155° |
| 2026-04-27 09:20 | -19.09683 | 147.23778 | 37026 ft | 477 kts | 155° |
| 2026-04-27 09:21 | -19.15474 | 147.27201 | 37029 ft | 477 kts | 155° |
| 2026-04-27 09:21 | -19.21261 | 147.30621 | 37057 ft | 475 kts | 154° |
| 2026-04-27 09:22 | -19.26051 | 147.33465 | 37056 ft | 473 kts | 154° |
| 2026-04-27 09:22 | -19.31775 | 147.36866 | 37055 ft | 471 kts | 154° |
| 2026-04-27 09:23 | -19.37487 | 147.40258 | 37048 ft | 470 kts | 154° |
| 2026-04-27 09:23 | -19.43163 | 147.43632 | 37045 ft | 470 kts | 154° |
| 2026-04-27 09:24 | -19.48870 | 147.47029 | 37042 ft | 470 kts | 154° |
| 2026-04-27 09:24 | -19.54564 | 147.50413 | 37058 ft | 469 kts | 154° |
| 2026-04-27 09:25 | -19.60246 | 147.53792 | 37060 ft | 467 kts | 154° |
| 2026-04-27 09:25 | -19.65908 | 147.57178 | 37056 ft | 467 kts | 154° |
| 2026-04-27 09:26 | -19.71564 | 147.60558 | 37055 ft | 466 kts | 154° |
| 2026-04-27 09:26 | -19.77216 | 147.63928 | 37052 ft | 465 kts | 154° |
| 2026-04-27 09:27 | -19.82828 | 147.67271 | 37066 ft | 466 kts | 154° |
| 2026-04-27 09:27 | -19.88477 | 147.70645 | 37060 ft | 466 kts | 154° |
| 2026-04-27 09:28 | -19.94121 | 147.74032 | 37062 ft | 466 kts | 154° |
| 2026-04-27 09:28 | -19.99766 | 147.77417 | 37063 ft | 465 kts | 154° |
| 2026-04-27 09:29 | -20.05409 | 147.80797 | 37057 ft | 465 kts | 154° |
| 2026-04-27 09:29 | -20.11051 | 147.84179 | 37068 ft | 465 kts | 154° |
| 2026-04-27 09:30 | -20.16656 | 147.87541 | 37082 ft | 465 kts | 154° |
| 2026-04-27 09:30 | -20.22301 | 147.90928 | 37075 ft | 465 kts | 154° |
| 2026-04-27 09:31 | -20.27941 | 147.94318 | 37068 ft | 465 kts | 154° |
| 2026-04-27 09:31 | -20.33583 | 147.97713 | 37062 ft | 466 kts | 154° |
| 2026-04-27 09:32 | -20.39225 | 148.01114 | 37069 ft | 466 kts | 154° |
| 2026-04-27 09:32 | -20.44883 | 148.04526 | 37075 ft | 467 kts | 154° |
| 2026-04-27 09:33 | -20.50538 | 148.07935 | 37088 ft | 467 kts | 155° |
| 2026-04-27 09:33 | -20.56153 | 148.11321 | 37087 ft | 467 kts | 155° |
| 2026-04-27 09:34 | -20.61794 | 148.14740 | 37088 ft | 466 kts | 154° |
| 2026-04-27 09:34 | -20.67446 | 148.18165 | 37086 ft | 467 kts | 155° |
| 2026-04-27 09:35 | -20.73095 | 148.21590 | 37091 ft | 467 kts | 155° |
| 2026-04-27 09:35 | -20.78750 | 148.25012 | 37090 ft | 468 kts | 155° |
| 2026-04-27 09:36 | -20.84414 | 148.28435 | 37100 ft | 468 kts | 155° |
| 2026-04-27 09:36 | -20.90082 | 148.31866 | 37098 ft | 468 kts | 155° |
| 2026-04-27 09:37 | -20.95746 | 148.35312 | 37095 ft | 468 kts | 155° |
| 2026-04-27 09:37 | -21.01404 | 148.38759 | 37103 ft | 468 kts | 155° |
| 2026-04-27 09:38 | -21.07068 | 148.42206 | 37094 ft | 468 kts | 155° |
| 2026-04-27 09:38 | -21.12740 | 148.45657 | 37131 ft | 468 kts | 156° |
| 2026-04-27 09:39 | -21.18410 | 148.49112 | 37123 ft | 469 kts | 156° |
| 2026-04-27 09:39 | -21.24089 | 148.52580 | 37112 ft | 470 kts | 156° |
| 2026-04-27 09:40 | -21.29732 | 148.56025 | 37105 ft | 470 kts | 156° |
| 2026-04-27 09:40 | -21.35424 | 148.59507 | 37109 ft | 470 kts | 156° |
| 2026-04-27 09:41 | -21.41114 | 148.62989 | 37111 ft | 471 kts | 156° |
| 2026-04-27 09:41 | -21.46807 | 148.66476 | 37113 ft | 471 kts | 156° |
| 2026-04-27 09:42 | -21.52505 | 148.69967 | 37110 ft | 471 kts | 156° |
| 2026-04-27 09:42 | -21.58194 | 148.73452 | 37114 ft | 471 kts | 156° |
| 2026-04-27 09:43 | -21.63886 | 148.76944 | 37120 ft | 471 kts | 156° |
| 2026-04-27 09:43 | -21.69538 | 148.80424 | 37111 ft | 472 kts | 156° |
| 2026-04-27 09:44 | -21.75246 | 148.83942 | 37113 ft | 473 kts | 156° |
| 2026-04-27 09:44 | -21.80950 | 148.87456 | 37135 ft | 473 kts | 156° |
| 2026-04-27 09:45 | -21.86655 | 148.90971 | 37123 ft | 473 kts | 156° |
| 2026-04-27 09:45 | -21.92366 | 148.94491 | 37119 ft | 473 kts | 156° |
| 2026-04-27 09:46 | -21.98077 | 148.98013 | 37114 ft | 473 kts | 156° |
| 2026-04-27 09:46 | -22.03785 | 149.01542 | 37117 ft | 473 kts | 156° |
| 2026-04-27 09:47 | -22.09489 | 149.05069 | 37158 ft | 473 kts | 156° |
| 2026-04-27 09:47 | -22.15212 | 149.08617 | 37111 ft | 475 kts | 157° |
| 2026-04-27 09:48 | -22.20947 | 149.12169 | 37107 ft | 476 kts | 157° |
| 2026-04-27 09:48 | -22.26694 | 149.15736 | 37109 ft | 476 kts | 157° |
| 2026-04-27 09:49 | -22.32433 | 149.19307 | 37117 ft | 476 kts | 157° |
| 2026-04-27 09:49 | -22.38182 | 149.22875 | 37119 ft | 476 kts | 157° |
| 2026-04-27 09:50 | -22.43925 | 149.26447 | 37150 ft | 476 kts | 157° |
| 2026-04-27 09:50 | -22.49676 | 149.30029 | 37135 ft | 476 kts | 157° |
| 2026-04-27 09:51 | -22.55375 | 149.33585 | 37122 ft | 475 kts | 157° |
| 2026-04-27 09:51 | -22.61107 | 149.37161 | 37123 ft | 476 kts | 157° |
| 2026-04-27 09:52 | -22.66844 | 149.40736 | 37125 ft | 476 kts | 157° |
| 2026-04-27 09:52 | -22.72580 | 149.44315 | 37124 ft | 476 kts | 157° |
| 2026-04-27 09:53 | -22.78310 | 149.47906 | 37118 ft | 474 kts | 158° |
| 2026-04-27 09:53 | -22.84021 | 149.51492 | 37118 ft | 474 kts | 158° |
| 2026-04-27 09:54 | -22.89736 | 149.55075 | 37114 ft | 475 kts | 158° |
| 2026-04-27 09:54 | -22.95464 | 149.58671 | 37120 ft | 475 kts | 158° |
| 2026-04-27 09:55 | -23.01196 | 149.62275 | 37116 ft | 477 kts | 158° |
| 2026-04-27 09:55 | -23.09813 | 149.67692 | 37164 ft | 478 kts | 158° |
| 2026-04-27 09:56 | -23.15566 | 149.71328 | 37148 ft | 478 kts | 158° |
| 2026-04-27 09:56 | -23.21309 | 149.74967 | 37140 ft | 478 kts | 158° |
| 2026-04-27 09:57 | -23.27025 | 149.78592 | 37143 ft | 478 kts | 158° |
| 2026-04-27 09:57 | -23.32772 | 149.82244 | 37140 ft | 478 kts | 158° |
| 2026-04-27 09:58 | -23.38521 | 149.85886 | 37174 ft | 478 kts | 157° |
| 2026-04-27 09:58 | -23.44252 | 149.89522 | 37149 ft | 476 kts | 157° |
| 2026-04-27 09:59 | -23.49997 | 149.93167 | 37128 ft | 477 kts | 157° |
| 2026-04-27 09:59 | -23.55745 | 149.96824 | 37124 ft | 478 kts | 157° |
| 2026-04-27 10:00 | -23.61498 | 150.00491 | 37124 ft | 479 kts | 157° |
| 2026-04-27 10:00 | -23.67254 | 150.04161 | 37127 ft | 479 kts | 157° |
| 2026-04-27 10:01 | -23.72971 | 150.07809 | 37142 ft | 477 kts | 156° |
| 2026-04-27 10:01 | -23.78685 | 150.11463 | 37143 ft | 474 kts | 156° |
| 2026-04-27 10:02 | -23.84381 | 150.15109 | 37144 ft | 474 kts | 156° |
| 2026-04-27 10:02 | -23.90076 | 150.18764 | 37143 ft | 475 kts | 156° |
| 2026-04-27 10:03 | -23.95792 | 150.22422 | 37128 ft | 477 kts | 156° |
| 2026-04-27 10:03 | -24.01535 | 150.26092 | 37124 ft | 478 kts | 156° |
| 2026-04-27 10:04 | -24.07275 | 150.29781 | 37173 ft | 479 kts | 155° |
| 2026-04-27 10:04 | -24.13012 | 150.33479 | 37175 ft | 478 kts | 155° |
| 2026-04-27 10:05 | -24.18744 | 150.37165 | 37173 ft | 477 kts | 155° |
| 2026-04-27 10:05 | -24.24425 | 150.40829 | 37175 ft | 477 kts | 155° |
| 2026-04-27 10:06 | -24.30149 | 150.44522 | 37175 ft | 477 kts | 155° |
| 2026-04-27 10:06 | -24.34944 | 150.47621 | 37226 ft | 478 kts | 154° |
| 2026-04-27 10:07 | -24.41558 | 150.51904 | 37156 ft | 473 kts | 154° |
| 2026-04-27 10:07 | -24.47229 | 150.55572 | 37163 ft | 473 kts | 154° |
| 2026-04-27 10:08 | -24.51961 | 150.58708 | 37169 ft | 475 kts | 152° |
| 2026-04-27 10:08 | -24.57481 | 150.62713 | 37173 ft | 476 kts | 150° |
| 2026-04-27 10:09 | -24.63853 | 150.67494 | 37188 ft | 477 kts | 150° |
| 2026-04-27 10:09 | -24.68432 | 150.70880 | 37190 ft | 476 kts | 151° |
| 2026-04-27 10:10 | -24.74765 | 150.75711 | 37198 ft | 481 kts | 143° |
| 2026-04-27 10:10 | -24.78997 | 150.79769 | 37163 ft | 483 kts | 143° |
| 2026-04-27 10:11 | -24.84027 | 150.84631 | 37157 ft | 485 kts | 142° |
| 2026-04-27 10:11 | -24.89099 | 150.89555 | 37168 ft | 487 kts | 142° |
| 2026-04-27 10:12 | -24.94192 | 150.94494 | 37176 ft | 488 kts | 142° |
| 2026-04-27 10:12 | -24.99294 | 150.99444 | 37182 ft | 489 kts | 142° |
| 2026-04-27 10:13 | -25.04390 | 151.04395 | 37227 ft | 487 kts | 142° |
| 2026-04-27 10:13 | -25.09472 | 151.09335 | 37202 ft | 487 kts | 142° |
| 2026-04-27 10:14 | -25.14559 | 151.14279 | 37194 ft | 488 kts | 142° |
| 2026-04-27 10:14 | -25.19658 | 151.19245 | 37201 ft | 488 kts | 142° |
| 2026-04-27 10:15 | -25.24750 | 151.24214 | 37202 ft | 489 kts | 142° |
| 2026-04-27 10:15 | -25.29850 | 151.29191 | 37202 ft | 489 kts | 142° |
| 2026-04-27 10:16 | -25.34917 | 151.34145 | 37208 ft | 490 kts | 142° |
| 2026-04-27 10:16 | -25.40016 | 151.39135 | 37229 ft | 489 kts | 141° |
| 2026-04-27 10:17 | -25.45109 | 151.44114 | 37227 ft | 488 kts | 141° |
| 2026-04-27 10:17 | -25.50242 | 151.49018 | 37223 ft | 485 kts | 145° |
| 2026-04-27 10:18 | -25.55619 | 151.53504 | 37220 ft | 484 kts | 147° |
| 2026-04-27 10:18 | -25.61055 | 151.57888 | 37222 ft | 483 kts | 147° |
| 2026-04-27 10:19 | -25.66499 | 151.62300 | 37222 ft | 483 kts | 147° |
| 2026-04-27 10:19 | -25.71876 | 151.66724 | 37238 ft | 484 kts | 146° |
| 2026-04-27 10:20 | -25.77257 | 151.71178 | 37239 ft | 481 kts | 146° |
| 2026-04-27 10:20 | -25.82614 | 151.75610 | 37242 ft | 480 kts | 146° |
| 2026-04-27 10:21 | -25.87959 | 151.80028 | 37242 ft | 479 kts | 146° |
| 2026-04-27 10:21 | -25.93323 | 151.84408 | 37115 ft | 476 kts | 146° |
| 2026-04-27 10:22 | -25.95991 | 151.86577 | 36592 ft | 475 kts | 146° |
| 2026-04-27 10:22 | -25.98651 | 151.88740 | 36054 ft | 474 kts | 146° |
| 2026-04-27 10:22 | -26.01309 | 151.90917 | 35241 ft | 479 kts | 146° |
| 2026-04-27 10:22 | -26.03988 | 151.93131 | 34565 ft | 478 kts | 145° |
| 2026-04-27 10:23 | -26.06639 | 151.95336 | 34056 ft | 473 kts | 145° |
| 2026-04-27 10:23 | -26.09253 | 151.97522 | 33520 ft | 467 kts | 144° |
| 2026-04-27 10:23 | -26.11833 | 151.99682 | 33017 ft | 461 kts | 144° |
| 2026-04-27 10:23 | -26.14388 | 152.01814 | 32553 ft | 456 kts | 144° |
| 2026-04-27 10:24 | -26.16907 | 152.03914 | 32091 ft | 450 kts | 144° |
| 2026-04-27 10:24 | -26.19397 | 152.05984 | 31627 ft | 444 kts | 144° |
| 2026-04-27 10:24 | -26.21863 | 152.08028 | 31191 ft | 438 kts | 143° |
| 2026-04-27 10:24 | -26.24291 | 152.10043 | 30772 ft | 432 kts | 143° |
| 2026-04-27 10:25 | -26.26682 | 152.12036 | 30416 ft | 424 kts | 143° |
| 2026-04-27 10:25 | -26.29040 | 152.14003 | 29417 ft | 422 kts | 143° |
| 2026-04-27 10:25 | -26.31373 | 152.15955 | 28379 ft | 417 kts | 143° |
| 2026-04-27 10:25 | -26.33683 | 152.17890 | 27189 ft | 416 kts | 143° |
| 2026-04-27 10:26 | -26.35987 | 152.19818 | 25780 ft | 423 kts | 143° |
| 2026-04-27 10:26 | -26.38351 | 152.21798 | 24472 ft | 427 kts | 143° |
| 2026-04-27 10:26 | -26.40720 | 152.23785 | 23542 ft | 421 kts | 143° |
| 2026-04-27 10:26 | -26.43004 | 152.25702 | 23152 ft | 402 kts | 143° |
| 2026-04-27 10:27 | -26.45181 | 152.27526 | 22867 ft | 381 kts | 143° |
| 2026-04-27 10:27 | -26.47273 | 152.29279 | 22435 ft | 374 kts | 143° |
| 2026-04-27 10:27 | -26.49352 | 152.31021 | 21993 ft | 372 kts | 143° |
| 2026-04-27 10:27 | -26.51416 | 152.32748 | 21552 ft | 370 kts | 143° |
| 2026-04-27 10:28 | -26.53472 | 152.34472 | 21108 ft | 367 kts | 143° |
| 2026-04-27 10:28 | -26.55510 | 152.36186 | 20653 ft | 369 kts | 142° |
| 2026-04-27 10:28 | -26.57632 | 152.37970 | 20203 ft | 393 kts | 142° |
| 2026-04-27 10:28 | -26.59847 | 152.39831 | 19719 ft | 407 kts | 142° |
| 2026-04-27 10:29 | -26.62143 | 152.41760 | 19221 ft | 429 kts | 142° |
| 2026-04-27 10:29 | -26.64566 | 152.43799 | 18679 ft | 440 kts | 142° |
| 2026-04-27 10:29 | -26.67009 | 152.45855 | 18105 ft | 439 kts | 142° |
| 2026-04-27 10:29 | -26.69443 | 152.47902 | 17567 ft | 436 kts | 142° |
| 2026-04-27 10:30 | -26.71852 | 152.49929 | 17038 ft | 432 kts | 142° |
| 2026-04-27 10:30 | -26.74247 | 152.51946 | 16505 ft | 428 kts | 142° |
| 2026-04-27 10:30 | -26.76620 | 152.53946 | 15989 ft | 425 kts | 142° |
| 2026-04-27 10:30 | -26.78968 | 152.55931 | 15468 ft | 422 kts | 142° |
| 2026-04-27 10:31 | -26.81297 | 152.57902 | 14962 ft | 418 kts | 142° |
| 2026-04-27 10:31 | -26.83609 | 152.59856 | 14449 ft | 415 kts | 142° |
| 2026-04-27 10:31 | -26.85903 | 152.61793 | 13945 ft | 411 kts | 142° |
| 2026-04-27 10:31 | -26.88138 | 152.63772 | 13436 ft | 407 kts | 138° |
| 2026-04-27 10:32 | -26.90249 | 152.65882 | 12949 ft | 404 kts | 137° |
| 2026-04-27 10:32 | -26.92315 | 152.68007 | 12473 ft | 401 kts | 136° |
| 2026-04-27 10:32 | -26.94346 | 152.70127 | 11989 ft | 398 kts | 136° |
| 2026-04-27 10:32 | -26.96357 | 152.72234 | 11512 ft | 394 kts | 136° |
| 2026-04-27 10:33 | -26.98354 | 152.74319 | 11040 ft | 391 kts | 135° |
| 2026-04-27 10:33 | -27.00049 | 152.76655 | 10567 ft | 385 kts | 119° |
| 2026-04-27 10:33 | -27.01178 | 152.79361 | 9908 ft | 383 kts | 113° |
| 2026-04-27 10:33 | -27.02204 | 152.82054 | 9372 ft | 376 kts | 112° |
| 2026-04-27 10:34 | -27.03208 | 152.84756 | 8923 ft | 373 kts | 112° |
| 2026-04-27 10:34 | -27.04177 | 152.87401 | 8604 ft | 357 kts | 112° |
| 2026-04-27 10:34 | -27.05078 | 152.89860 | 8374 ft | 325 kts | 112° |
| 2026-04-27 10:34 | -27.05901 | 152.92094 | 8221 ft | 296 kts | 112° |
| 2026-04-27 10:35 | -27.06659 | 152.94142 | 7972 ft | 276 kts | 113° |
| 2026-04-27 10:35 | -27.07353 | 152.96138 | 7277 ft | 274 kts | 107° |
| 2026-04-27 10:35 | -27.07790 | 152.98211 | 6709 ft | 269 kts | 104° |
| 2026-04-27 10:35 | -27.08199 | 153.00209 | 6353 ft | 256 kts | 104° |
| 2026-04-27 10:36 | -27.08590 | 153.02109 | 6050 ft | 243 kts | 104° |
| 2026-04-27 10:36 | -27.08960 | 153.03904 | 5778 ft | 230 kts | 104° |
| 2026-04-27 10:36 | -27.09312 | 153.05605 | 5520 ft | 217 kts | 104° |
| 2026-04-27 10:36 | -27.09642 | 153.07209 | 5282 ft | 207 kts | 105° |
| 2026-04-27 10:37 | -27.09963 | 153.08769 | 5041 ft | 203 kts | 105° |
| 2026-04-27 10:37 | -27.10278 | 153.10303 | 4807 ft | 200 kts | 105° |
| 2026-04-27 10:37 | -27.10507 | 153.11840 | 4576 ft | 200 kts | 95° |
| 2026-04-27 10:37 | -27.10423 | 153.13401 | 4337 ft | 201 kts | 86° |
| 2026-04-27 10:38 | -27.10231 | 153.14952 | 4104 ft | 201 kts | 87° |
| 2026-04-27 10:38 | -27.10045 | 153.16504 | 3877 ft | 200 kts | 87° |
| 2026-04-27 10:38 | -27.09866 | 153.18032 | 3650 ft | 199 kts | 89° |
| 2026-04-27 10:38 | -27.09890 | 153.19573 | 3420 ft | 194 kts | 99° |
| 2026-04-27 10:39 | -27.10073 | 153.21072 | 3180 ft | 193 kts | 109° |
| 2026-04-27 10:39 | -27.10592 | 153.22413 | 3042 ft | 190 kts | 124° |
| 2026-04-27 10:39 | -27.11446 | 153.23524 | 3002 ft | 188 kts | 140° |
| 2026-04-27 10:39 | -27.12622 | 153.24162 | 3003 ft | 193 kts | 168° |
| 2026-04-27 10:40 | -27.13979 | 153.24169 | 3003 ft | 198 kts | 182° |
| 2026-04-27 10:40 | -27.15310 | 153.23747 | 3002 ft | 204 kts | 199° |
| 2026-04-27 10:40 | -27.16585 | 153.23039 | 3003 ft | 204 kts | 200° |
| 2026-04-27 10:40 | -27.17855 | 153.22325 | 3004 ft | 204 kts | 200° |
| 2026-04-27 10:41 | -27.19118 | 153.21611 | 3005 ft | 203 kts | 200° |
| 2026-04-27 10:41 | -27.20339 | 153.20916 | 3002 ft | 193 kts | 200° |
| 2026-04-27 10:41 | -27.21526 | 153.20241 | 3003 ft | 190 kts | 199° |
| 2026-04-27 10:41 | -27.22709 | 153.19571 | 2997 ft | 191 kts | 199° |
| 2026-04-27 10:42 | -27.23906 | 153.18899 | 2705 ft | 194 kts | 199° |
| 2026-04-27 10:42 | -27.25106 | 153.18218 | 2363 ft | 192 kts | 200° |
| 2026-04-27 10:42 | -27.26255 | 153.17561 | 2096 ft | 179 kts | 199° |
| 2026-04-27 10:42 | -27.27329 | 153.16946 | 1860 ft | 166 kts | 199° |
| 2026-04-27 10:43 | -27.28300 | 153.16392 | 1647 ft | 151 kts | 199° |
| 2026-04-27 10:43 | -27.29217 | 153.15869 | 1448 ft | 141 kts | 200° |
| 2026-04-27 10:43 | -27.30057 | 153.15391 | 1271 ft | 136 kts | 201° |
| 2026-04-27 10:43 | -27.30883 | 153.14920 | 1113 ft | 131 kts | 201° |
| 2026-04-27 10:44 | -27.31702 | 153.14454 | 933 ft | 132 kts | 200° |
| 2026-04-27 10:44 | -27.32520 | 153.13988 | 754 ft | 131 kts | 202° |
| 2026-04-27 10:44 | -27.33334 | 153.13523 | 584 ft | 132 kts | 202° |
| 2026-04-27 10:44 | -27.34162 | 153.13051 | 398 ft | 133 kts | 206° |
| 2026-04-27 10:45 | -27.34982 | 153.12581 | 195 ft | 131 kts | 206° |
| 2026-04-27 10:45 | -27.35765 | 153.12132 | 32 ft | 118 kts | 205° |
| 2026-04-27 10:45 | -27.36379 | 153.11784 | 18 ft | 75 kts | 207° |
| 2026-04-27 10:45 | -27.36687 | 153.11611 | 18 ft | 26 kts | 202° |
| 2026-04-27 10:46 | -27.36845 | 153.11584 | 16 ft | 19 kts | 178° |
| 2026-04-27 10:46 | -27.36952 | 153.11587 | 17 ft | 11 kts | 179° |
| 2026-04-27 10:46 | -27.37020 | 153.11592 | 17 ft | 10 kts | 169° |
| 2026-04-27 10:46 | -27.37078 | 153.11644 | 18 ft | 10 kts | 118° |
| 2026-04-27 10:47 | -27.37126 | 153.11682 | 18 ft | 9 kts | 185° |
| 2026-04-27 10:47 | -27.37193 | 153.11643 | 19 ft | 13 kts | 208° |
| 2026-04-27 10:47 | -27.37279 | 153.11610 | 18 ft | 13 kts | 180° |
| 2026-04-27 10:47 | -27.37353 | 153.11675 | 18 ft | 16 kts | 114° |
| 2026-04-27 10:48 | -27.37403 | 153.11784 | 18 ft | 16 kts | 118° |
| 2026-04-27 10:48 | -27.37457 | 153.11903 | 18 ft | 15 kts | 117° |
| 2026-04-27 10:48 | -27.37508 | 153.12015 | 18 ft | 18 kts | 117° |
| 2026-04-27 10:48 | -27.37570 | 153.12149 | 18 ft | 21 kts | 117° |
| 2026-04-27 10:49 | -27.37641 | 153.12304 | 18 ft | 24 kts | 117° |
| 2026-04-27 10:49 | -27.37713 | 153.12462 | 18 ft | 22 kts | 116° |
| 2026-04-27 10:49 | -27.37769 | 153.12586 | 18 ft | 16 kts | 117° |
| 2026-04-27 10:49 | -27.37815 | 153.12687 | 18 ft | 12 kts | 117° |
| 2026-04-27 10:50 | -27.37853 | 153.12769 | 18 ft | 10 kts | 116° |
| 2026-04-27 10:50 | -27.37883 | 153.12836 | 18 ft | 8 kts | 116° |
| 2026-04-27 10:50 | -27.37898 | 153.12870 | 18 ft | 0 kts | 117° |
| 2026-04-27 10:51 | -27.37905 | 153.12885 | 18 ft | 5 kts | 118° |
| 2026-04-27 10:51 | -27.37940 | 153.12919 | 19 ft | 8 kts | 157° |
| 2026-04-27 10:51 | -27.38002 | 153.12900 | 18 ft | 11 kts | 210° |
| 2026-04-27 10:52 | -27.38080 | 153.12853 | 18 ft | 14 kts | 206° |
| 2026-04-27 10:52 | -27.38177 | 153.12797 | 18 ft | 17 kts | 206° |
| 2026-04-27 10:52 | -27.38291 | 153.12732 | 18 ft | 15 kts | 207° |
| 2026-04-27 10:52 | -27.38369 | 153.12681 | 20 ft | 9 kts | 226° |
| 2026-04-27 10:53 | -27.38371 | 153.12604 | 20 ft | 12 kts | 305° |
| 2026-04-27 10:53 | -27.38267 | 153.12426 | 18 ft | 14 kts | 276° |
| 2026-04-27 10:53 | -27.38284 | 153.12317 | 18 ft | 10 kts | 259° |